Language selection

My Weather Profile Weather Topics  | 

Strait of Belle Isle: Past 24 Hour Conditions

 

Makkovik Airport

11:00 AM AST 01 February 2023
Disclaimer

This table is a summary of hourly weather conditions for the past 24 hours.
Please note that these observations might not always be representative of weather conditions over their associated marine area.

Date / Time
(AST)
Wind(knots) Conditions Visibility(km) Pressure(kPa) Air tempC) Relative humidity(%) Dew pointC) Wind Chill
01 February 2023
11:00 WSW 13 gust 20 Sunny 24 101.3 -25 58 -31 -39
10:00 WSW 18 gust 23 Sunny 24 101.2 -27 60 -33 -42
9:00 WSW 16 gust 23 Sunny 24 101.2 -28 61 -33 -43
8:00 SW 16 Sunny 24 101.2 -29 64 -34 -45
7:00 SW 16 Clear 24 101.2 -29 65 -34 -45
6:00 WSW 15 Clear 24 101.2 -29 66 -34 -44
5:00 WSW 17 N/A N/A 101.3 -29 65 -33 -44
4:00 SW 11 N/A N/A 101.3 -30 67 -34 -42
3:00 WSW 14 N/A N/A 101.3 -29 65 -33 -43
2:00 WSW 13 N/A N/A 101.3 -28 65 -33 -42
1:00 SW 13 N/A N/A 101.4 -30 67 -34 -44
0:00 WSW 15 N/A N/A 101.5 -28 62 -33 -42
31 January 2023
23:00 WSW 13 N/A N/A 101.5 -28 61 -33 -41
22:00 WSW 12 N/A N/A 101.6 -28 61 -33 -41
21:00 WSW 11 N/A N/A 101.6 -27 59 -33 -39
20:00 WSW 12 N/A N/A 101.6 -27 60 -33 -40
19:00 WSW 11 N/A N/A 101.6 -28 60 -33 -40
18:00 WSW 9 N/A N/A 101.7 -28 59 -33 -39
17:00 WSW 7 Clear 24 101.7 -26 54 -33 -36
16:00 WNW 9 Sunny 24 101.8 -26 54 -32 -37
15:00 WNW 9 Sunny 24 101.8 -25 55 -32 -36
14:00 W 11 Sunny 24 101.8 -25 54 -32 -37
13:00 W 11 Sunny 24 101.8 -26 53 -32 -38
12:00 WSW 8 Sunny 24 101.8 -26 58 -31 -36
11:00 WSW 9 Sunny 24 101.9 -26 64 -31 -37

Zoom-in to make a selection

Map of Atlantic - Labrador marine weather areas Kangiqsualujjuaq Airport Cape Kakkiviak Cape Kiglapait Cartwright Airport CFB Goose Bay Hopedale Mary's Harbour Nain Airport Makkovik Airport Saglek Tukialik Bay
Legend:
buoy Buoy
land station Land Station

Atlantic - Labrador Area

Another Region

What we are doing

Date modified: